MET'MAP v2.0
soon released !

Expected late october,
this new version will be
more efficient, smarter,
and hosted on a brand new
server x3 powerfull...
...and still free !


Not compatible ?
Try the mobile version !

LOG IN : | Subscribe | Disclaimer | Who is Orbifly ? |
ICAO code :

TAF - LGTL Kasteli AB - 30 Mar 2020 09:54 UTC - Data Source NOAA   


- Airport Elevation : 1180 ft
- No reported NOTAMs.


LGTL - Kasteli AB

NO METAR
TAF TAF LGTL
Valid from the 30 at 06:00 until the 30 at 15:00 UTC


300500Z 3006/3015 05005KT 9999 FEW025 SCT080
BECMG 3010/3012 SCT025 BKN080
PROB30
TEMPO 3012/3015 6000 RA FEW010 BKN020 BKN080

Source NOAA


MET'MAP, your aeronautical weather chart ! - Copyright ORBIFLY December 2007

Programming & Development : Alexandra Zaïnal
Co-Developer : Marc-Olivier Méhu
Technical & hardware support : Manuel Goepfert
Concept & Financing : Baudouin d'Aumeries